sensor_id;sensor_type;location;lat;lon;timestamp;temperature;humidity
61255;DHT22;47128;47.530;8.584;2023-06-26T00:02:09;18.90;99.90
61255;DHT22;47128;47.530;8.584;2023-06-26T00:04:34;19.00;99.90
61255;DHT22;47128;47.530;8.584;2023-06-26T00:07:01;18.80;99.90
61255;DHT22;47128;47.530;8.584;2023-06-26T00:09:26;18.90;99.90
61255;DHT22;47128;47.530;8.584;2023-06-26T00:11:52;18.80;99.90
61255;DHT22;47128;47.530;8.584;2023-06-26T00:14:17;18.80;99.90
61255;DHT22;47128;47.530;8.584;2023-06-26T00:16:49;18.70;99.90
61255;DHT22;47128;47.530;8.584;2023-06-26T00:19:17;18.60;99.90
61255;DHT22;47128;47.530;8.584;2023-06-26T00:21:43;18.60;99.90
61255;DHT22;47128;47.530;8.584;2023-06-26T00:24:16;18.60;99.90
61255;DHT22;47128;47.530;8.584;2023-06-26T00:26:42;18.70;99.90
61255;DHT22;47128;47.530;8.584;2023-06-26T00:29:07;18.60;99.90
61255;DHT22;47128;47.530;8.584;2023-06-26T00:31:33;18.50;99.90
61255;DHT22;47128;47.530;8.584;2023-06-26T00:34:00;18.60;99.90
61255;DHT22;47128;47.530;8.584;2023-06-26T00:36:26;18.60;99.90
61255;DHT22;47128;47.530;8.584;2023-06-26T00:38:51;18.70;99.90
61255;DHT22;47128;47.530;8.584;2023-06-26T00:41:17;18.80;99.90
61255;DHT22;47128;47.530;8.584;2023-06-26T00:43:43;18.80;99.90
61255;DHT22;47128;47.530;8.584;2023-06-26T00:46:09;18.70;99.90
61255;DHT22;47128;47.530;8.584;2023-06-26T00:48:35;18.80;99.90
61255;DHT22;47128;47.530;8.584;2023-06-26T00:51:00;18.70;99.90
61255;DHT22;47128;47.530;8.584;2023-06-26T00:53:27;18.70;99.90
61255;DHT22;47128;47.530;8.584;2023-06-26T00:55:52;18.60;99.90
61255;DHT22;47128;47.530;8.584;2023-06-26T00:58:18;18.50;99.90
61255;DHT22;47128;47.530;8.584;2023-06-26T01:00:43;18.40;99.90
61255;DHT22;47128;47.530;8.584;2023-06-26T01:03:11;18.40;99.90
61255;DHT22;47128;47.530;8.584;2023-06-26T01:05:37;18.40;99.90
61255;DHT22;47128;47.530;8.584;2023-06-26T01:08:03;18.30;99.90
61255;DHT22;47128;47.530;8.584;2023-06-26T01:10:29;18.20;99.90
61255;DHT22;47128;47.530;8.584;2023-06-26T01:12:55;18.30;99.90
61255;DHT22;47128;47.530;8.584;2023-06-26T01:15:20;18.30;99.90
61255;DHT22;47128;47.530;8.584;2023-06-26T01:17:46;18.30;99.90
61255;DHT22;47128;47.530;8.584;2023-06-26T01:20:12;18.20;99.90
61255;DHT22;47128;47.530;8.584;2023-06-26T01:22:44;18.30;99.90
61255;DHT22;47128;47.530;8.584;2023-06-26T01:27:46;18.10;99.90
61255;DHT22;47128;47.530;8.584;2023-06-26T01:30:12;18.00;99.90
61255;DHT22;47128;47.530;8.584;2023-06-26T01:32:38;17.90;99.90
61255;DHT22;47128;47.530;8.584;2023-06-26T01:35:05;17.90;99.90
61255;DHT22;47128;47.530;8.584;2023-06-26T01:37:31;17.90;99.90
61255;DHT22;47128;47.530;8.584;2023-06-26T01:39:56;17.90;99.90
61255;DHT22;47128;47.530;8.584;2023-06-26T01:42:22;17.80;99.90
61255;DHT22;47128;47.530;8.584;2023-06-26T01:44:47;17.80;99.90
61255;DHT22;47128;47.530;8.584;2023-06-26T01:47:14;17.80;99.90
61255;DHT22;47128;47.530;8.584;2023-06-26T01:54:57;17.60;99.90
61255;DHT22;47128;47.530;8.584;2023-06-26T01:57:23;17.60;99.90
61255;DHT22;47128;47.530;8.584;2023-06-26T01:59:51;17.70;99.90
61255;DHT22;47128;47.530;8.584;2023-06-26T02:02:17;17.80;99.90
61255;DHT22;47128;47.530;8.584;2023-06-26T02:04:43;17.90;99.90
61255;DHT22;47128;47.530;8.584;2023-06-26T02:07:08;17.70;99.90
61255;DHT22;47128;47.530;8.584;2023-06-26T02:09:34;17.60;99.90
61255;DHT22;47128;47.530;8.584;2023-06-26T02:12:00;17.60;99.90
61255;DHT22;47128;47.530;8.584;2023-06-26T02:14:25;17.60;99.90
61255;DHT22;47128;47.530;8.584;2023-06-26T02:16:51;17.40;99.90
61255;DHT22;47128;47.530;8.584;2023-06-26T02:19:16;17.40;99.90
61255;DHT22;47128;47.530;8.584;2023-06-26T02:21:47;17.40;99.90
61255;DHT22;47128;47.530;8.584;2023-06-26T02:24:13;17.50;99.90
61255;DHT22;47128;47.530;8.584;2023-06-26T02:26:38;17.40;99.90
61255;DHT22;47128;47.530;8.584;2023-06-26T02:29:04;17.40;99.90
61255;DHT22;47128;47.530;8.584;2023-06-26T02:31:29;17.40;99.90
61255;DHT22;47128;47.530;8.584;2023-06-26T02:33:55;17.40;99.90
61255;DHT22;47128;47.530;8.584;2023-06-26T02:36:20;17.40;99.90
61255;DHT22;47128;47.530;8.584;2023-06-26T02:38:46;17.40;99.90
61255;DHT22;47128;47.530;8.584;2023-06-26T02:41:11;17.40;99.90
61255;DHT22;47128;47.530;8.584;2023-06-26T02:43:37;17.40;99.90
61255;DHT22;47128;47.530;8.584;2023-06-26T02:46:02;17.40;99.90
61255;DHT22;47128;47.530;8.584;2023-06-26T02:48:28;17.40;99.90
61255;DHT22;47128;47.530;8.584;2023-06-26T02:50:53;17.50;99.90
61255;DHT22;47128;47.530;8.584;2023-06-26T02:53:19;17.40;99.90
61255;DHT22;47128;47.530;8.584;2023-06-26T02:55:44;17.40;99.90
61255;DHT22;47128;47.530;8.584;2023-06-26T02:58:10;17.40;99.90
61255;DHT22;47128;47.530;8.584;2023-06-26T03:00:35;17.40;99.90
61255;DHT22;47128;47.530;8.584;2023-06-26T03:03:07;17.40;99.90
61255;DHT22;47128;47.530;8.584;2023-06-26T03:05:32;17.40;99.90
61255;DHT22;47128;47.530;8.584;2023-06-26T03:07:58;17.40;99.90
61255;DHT22;47128;47.530;8.584;2023-06-26T03:10:24;17.50;99.90
61255;DHT22;47128;47.530;8.584;2023-06-26T03:12:49;17.40;99.90
61255;DHT22;47128;47.530;8.584;2023-06-26T03:21:21;17.50;99.90
61255;DHT22;47128;47.530;8.584;2023-06-26T03:23:47;17.50;99.90
61255;DHT22;47128;47.530;8.584;2023-06-26T03:26:12;17.50;99.90
61255;DHT22;47128;47.530;8.584;2023-06-26T03:28:40;17.50;99.90
61255;DHT22;47128;47.530;8.584;2023-06-26T03:31:05;17.40;99.90
61255;DHT22;47128;47.530;8.584;2023-06-26T03:33:31;17.40;99.90
61255;DHT22;47128;47.530;8.584;2023-06-26T03:35:56;17.40;99.90
61255;DHT22;47128;47.530;8.584;2023-06-26T03:38:23;17.40;99.90
61255;DHT22;47128;47.530;8.584;2023-06-26T03:40:49;17.40;99.90
61255;DHT22;47128;47.530;8.584;2023-06-26T03:43:15;17.40;99.90
61255;DHT22;47128;47.530;8.584;2023-06-26T03:45:40;17.40;99.90
61255;DHT22;47128;47.530;8.584;2023-06-26T03:48:06;17.40;99.90
61255;DHT22;47128;47.530;8.584;2023-06-26T03:50:33;17.40;99.90
61255;DHT22;47128;47.530;8.584;2023-06-26T03:52:58;17.30;99.90
61255;DHT22;47128;47.530;8.584;2023-06-26T03:55:24;17.30;99.90
61255;DHT22;47128;47.530;8.584;2023-06-26T03:57:50;17.40;99.90
61255;DHT22;47128;47.530;8.584;2023-06-26T04:00:15;17.40;99.90
61255;DHT22;47128;47.530;8.584;2023-06-26T04:02:41;17.40;99.90
61255;DHT22;47128;47.530;8.584;2023-06-26T04:05:06;17.40;99.90
61255;DHT22;47128;47.530;8.584;2023-06-26T04:07:32;17.40;99.90
61255;DHT22;47128;47.530;8.584;2023-06-26T04:09:57;17.30;99.90
61255;DHT22;47128;47.530;8.584;2023-06-26T04:12:23;17.30;99.90
61255;DHT22;47128;47.530;8.584;2023-06-26T04:14:48;17.40;99.90
61255;DHT22;47128;47.530;8.584;2023-06-26T04:17:14;17.50;99.90
61255;DHT22;47128;47.530;8.584;2023-06-26T04:19:39;17.50;99.90
61255;DHT22;47128;47.530;8.584;2023-06-26T04:22:05;17.50;99.90
61255;DHT22;47128;47.530;8.584;2023-06-26T04:24:31;17.40;99.90
61255;DHT22;47128;47.530;8.584;2023-06-26T04:26:56;17.40;99.90
61255;DHT22;47128;47.530;8.584;2023-06-26T04:29:22;17.50;99.90
61255;DHT22;47128;47.530;8.584;2023-06-26T04:31:53;17.50;99.90
61255;DHT22;47128;47.530;8.584;2023-06-26T04:34:28;17.60;99.90
61255;DHT22;47128;47.530;8.584;2023-06-26T04:36:57;17.60;99.90
61255;DHT22;47128;47.530;8.584;2023-06-26T04:39:23;17.60;99.90
61255;DHT22;47128;47.530;8.584;2023-06-26T04:41:49;17.60;99.90
61255;DHT22;47128;47.530;8.584;2023-06-26T04:44:14;17.60;99.90
61255;DHT22;47128;47.530;8.584;2023-06-26T04:46:40;17.60;99.90
61255;DHT22;47128;47.530;8.584;2023-06-26T04:49:08;17.70;99.90
61255;DHT22;47128;47.530;8.584;2023-06-26T04:51:34;17.80;99.90
61255;DHT22;47128;47.530;8.584;2023-06-26T04:54:08;17.90;99.90
61255;DHT22;47128;47.530;8.584;2023-06-26T04:56:34;18.00;99.90
61255;DHT22;47128;47.530;8.584;2023-06-26T04:59:00;18.10;99.90
61255;DHT22;47128;47.530;8.584;2023-06-26T05:01:26;18.20;99.90
61255;DHT22;47128;47.530;8.584;2023-06-26T05:03:55;18.40;99.90
61255;DHT22;47128;47.530;8.584;2023-06-26T05:06:20;18.50;99.90
61255;DHT22;47128;47.530;8.584;2023-06-26T05:08:46;18.70;99.90
61255;DHT22;47128;47.530;8.584;2023-06-26T05:11:11;18.90;99.90
61255;DHT22;47128;47.530;8.584;2023-06-26T05:13:37;19.10;99.90
61255;DHT22;47128;47.530;8.584;2023-06-26T05:16:02;19.20;99.90
61255;DHT22;47128;47.530;8.584;2023-06-26T05:18:28;19.40;99.90
61255;DHT22;47128;47.530;8.584;2023-06-26T05:20:53;19.70;99.90
61255;DHT22;47128;47.530;8.584;2023-06-26T05:23:19;19.80;99.90
61255;DHT22;47128;47.530;8.584;2023-06-26T05:25:44;20.00;99.90
61255;DHT22;47128;47.530;8.584;2023-06-26T05:28:11;20.10;99.90
61255;DHT22;47128;47.530;8.584;2023-06-26T05:30:37;20.30;99.90
61255;DHT22;47128;47.530;8.584;2023-06-26T05:33:03;20.30;99.90
61255;DHT22;47128;47.530;8.584;2023-06-26T05:35:29;20.50;99.80
61255;DHT22;47128;47.530;8.584;2023-06-26T05:37:55;20.60;99.50
61255;DHT22;47128;47.530;8.584;2023-06-26T05:40:21;20.80;99.40
61255;DHT22;47128;47.530;8.584;2023-06-26T05:42:47;20.80;99.20
61255;DHT22;47128;47.530;8.584;2023-06-26T05:45:13;20.90;99.00
61255;DHT22;47128;47.530;8.584;2023-06-26T05:50:41;21.30;98.20
61255;DHT22;47128;47.530;8.584;2023-06-26T05:56:11;21.60;97.70
61255;DHT22;47128;47.530;8.584;2023-06-26T05:58:37;22.80;96.50
61255;DHT22;47128;47.530;8.584;2023-06-26T06:01:07;23.80;94.80
61255;DHT22;47128;47.530;8.584;2023-06-26T06:06:17;26.60;91.50
61255;DHT22;47128;47.530;8.584;2023-06-26T06:08:43;27.00;90.30
61255;DHT22;47128;47.530;8.584;2023-06-26T06:11:08;28.20;88.20
61255;DHT22;47128;47.530;8.584;2023-06-26T06:13:34;28.00;87.50
61255;DHT22;47128;47.530;8.584;2023-06-26T06:16:00;27.70;86.80
61255;DHT22;47128;47.530;8.584;2023-06-26T06:24:32;26.90;90.00
61255;DHT22;47128;47.530;8.584;2023-06-26T06:26:58;28.30;88.30
61255;DHT22;47128;47.530;8.584;2023-06-26T06:29:23;29.50;86.20
61255;DHT22;47128;47.530;8.584;2023-06-26T06:31:49;29.90;84.90
61255;DHT22;47128;47.530;8.584;2023-06-26T06:34:16;30.30;82.40
61255;DHT22;47128;47.530;8.584;2023-06-26T06:36:41;30.70;81.90
61255;DHT22;47128;47.530;8.584;2023-06-26T06:41:33;31.80;80.10
61255;DHT22;47128;47.530;8.584;2023-06-26T06:43:59;32.00;75.30
61255;DHT22;47128;47.530;8.584;2023-06-26T06:46:25;32.30;74.40
61255;DHT22;47128;47.530;8.584;2023-06-26T06:48:52;32.80;72.90
61255;DHT22;47128;47.530;8.584;2023-06-26T06:51:18;32.70;70.50
61255;DHT22;47128;47.530;8.584;2023-06-26T07:02:35;33.40;68.10
61255;DHT22;47128;47.530;8.584;2023-06-26T07:08:04;31.50;68.40
61255;DHT22;47128;47.530;8.584;2023-06-26T07:10:30;31.20;68.50
61255;DHT22;47128;47.530;8.584;2023-06-26T07:16:00;30.30;69.10
61255;DHT22;47128;47.530;8.584;2023-06-26T07:18:26;29.40;69.70
61255;DHT22;47128;47.530;8.584;2023-06-26T07:23:18;28.70;70.10
61255;DHT22;47128;47.530;8.584;2023-06-26T07:25:44;28.80;71.20
61255;DHT22;47128;47.530;8.584;2023-06-26T07:28:10;28.90;70.50
61255;DHT22;47128;47.530;8.584;2023-06-26T07:30:36;29.10;71.00
61255;DHT22;47128;47.530;8.584;2023-06-26T07:33:02;29.40;70.70
61255;DHT22;47128;47.530;8.584;2023-06-26T07:35:28;29.10;70.20
61255;DHT22;47128;47.530;8.584;2023-06-26T07:37:54;29.30;70.90
61255;DHT22;47128;47.530;8.584;2023-06-26T07:43:30;28.80;70.80
61255;DHT22;47128;47.530;8.584;2023-06-26T07:45:56;28.80;70.20
61255;DHT22;47128;47.530;8.584;2023-06-26T07:51:26;28.50;71.20
61255;DHT22;47128;47.530;8.584;2023-06-26T07:53:52;28.60;72.00
61255;DHT22;47128;47.530;8.584;2023-06-26T08:11:09;28.70;70.80
61255;DHT22;47128;47.530;8.584;2023-06-26T08:19:43;29.20;69.10
61255;DHT22;47128;47.530;8.584;2023-06-26T08:22:10;29.50;70.00
61255;DHT22;47128;47.530;8.584;2023-06-26T08:30:37;29.60;69.20
61255;DHT22;47128;47.530;8.584;2023-06-26T08:33:03;29.80;68.20
61255;DHT22;47128;47.530;8.584;2023-06-26T08:38:31;29.70;69.00
61255;DHT22;47128;47.530;8.584;2023-06-26T08:56:13;29.60;67.90
61255;DHT22;47128;47.530;8.584;2023-06-26T09:04:16;29.90;67.30
61255;DHT22;47128;47.530;8.584;2023-06-26T09:12:50;29.80;67.70
61255;DHT22;47128;47.530;8.584;2023-06-26T09:15:22;30.00;67.80
61255;DHT22;47128;47.530;8.584;2023-06-26T09:17:49;29.90;67.20
61255;DHT22;47128;47.530;8.584;2023-06-26T09:20:21;29.60;67.40
61255;DHT22;47128;47.530;8.584;2023-06-26T09:22:53;29.50;67.10
61255;DHT22;47128;47.530;8.584;2023-06-26T09:28:22;29.20;67.60
61255;DHT22;47128;47.530;8.584;2023-06-26T09:33:51;29.50;67.40
61255;DHT22;47128;47.530;8.584;2023-06-26T09:36:21;29.60;67.80
61255;DHT22;47128;47.530;8.584;2023-06-26T09:38:50;29.80;67.80
61255;DHT22;47128;47.530;8.584;2023-06-26T09:41:20;29.80;66.70
61255;DHT22;47128;47.530;8.584;2023-06-26T09:49:45;29.80;66.60
61255;DHT22;47128;47.530;8.584;2023-06-26T09:52:14;29.70;66.60
61255;DHT22;47128;47.530;8.584;2023-06-26T09:54:42;29.80;67.20
61255;DHT22;47128;47.530;8.584;2023-06-26T09:57:11;29.80;66.50
61255;DHT22;47128;47.530;8.584;2023-06-26T09:59:37;29.70;66.60
61255;DHT22;47128;47.530;8.584;2023-06-26T10:02:03;29.80;66.50
61255;DHT22;47128;47.530;8.584;2023-06-26T10:04:29;30.00;66.20
61255;DHT22;47128;47.530;8.584;2023-06-26T10:15:28;30.50;65.50
61255;DHT22;47128;47.530;8.584;2023-06-26T10:21:12;30.60;65.10
61255;DHT22;47128;47.530;8.584;2023-06-26T10:29:46;30.70;65.80
61255;DHT22;47128;47.530;8.584;2023-06-26T10:58:41;31.50;62.70
61255;DHT22;47128;47.530;8.584;2023-06-26T11:01:14;31.20;63.30
61255;DHT22;47128;47.530;8.584;2023-06-26T11:06:30;31.20;64.40
61255;DHT22;47128;47.530;8.584;2023-06-26T11:12:15;31.70;64.80
61255;DHT22;47128;47.530;8.584;2023-06-26T11:18:22;32.00;64.80
61255;DHT22;47128;47.530;8.584;2023-06-26T11:20:48;31.70;65.50
61255;DHT22;47128;47.530;8.584;2023-06-26T11:23:14;31.40;64.70
61255;DHT22;47128;47.530;8.584;2023-06-26T11:25:44;31.40;65.10
61255;DHT22;47128;47.530;8.584;2023-06-26T11:28:10;31.60;65.40
61255;DHT22;47128;47.530;8.584;2023-06-26T11:30:36;31.90;65.40
61255;DHT22;47128;47.530;8.584;2023-06-26T11:33:03;32.00;65.40
61255;DHT22;47128;47.530;8.584;2023-06-26T11:35:29;32.00;65.20
61255;DHT22;47128;47.530;8.584;2023-06-26T11:40:23;32.10;65.40
61255;DHT22;47128;47.530;8.584;2023-06-26T11:42:53;32.10;66.30
61255;DHT22;47128;47.530;8.584;2023-06-26T11:45:20;32.00;66.80
61255;DHT22;47128;47.530;8.584;2023-06-26T11:47:45;32.10;66.90
61255;DHT22;47128;47.530;8.584;2023-06-26T11:50:15;32.10;67.10
61255;DHT22;47128;47.530;8.584;2023-06-26T11:52:41;31.90;67.40
61255;DHT22;47128;47.530;8.584;2023-06-26T11:55:07;31.70;67.00
61255;DHT22;47128;47.530;8.584;2023-06-26T11:57:33;31.70;67.30
61255;DHT22;47128;47.530;8.584;2023-06-26T12:00:09;31.60;67.70
61255;DHT22;47128;47.530;8.584;2023-06-26T12:02:36;31.70;67.60
61255;DHT22;47128;47.530;8.584;2023-06-26T12:05:02;31.60;66.90
61255;DHT22;47128;47.530;8.584;2023-06-26T12:07:27;31.60;67.70
61255;DHT22;47128;47.530;8.584;2023-06-26T12:09:55;31.50;67.90
61255;DHT22;47128;47.530;8.584;2023-06-26T12:12:42;31.70;68.00
61255;DHT22;47128;47.530;8.584;2023-06-26T12:18:10;31.80;68.30
61255;DHT22;47128;47.530;8.584;2023-06-26T12:20:39;32.00;68.50
61255;DHT22;47128;47.530;8.584;2023-06-26T12:46:59;31.60;67.10
61255;DHT22;47128;47.530;8.584;2023-06-26T12:52:34;31.50;67.00
61255;DHT22;47128;47.530;8.584;2023-06-26T12:58:03;31.50;67.10
61255;DHT22;47128;47.530;8.584;2023-06-26T13:00:30;31.70;67.60
61255;DHT22;47128;47.530;8.584;2023-06-26T13:02:57;32.00;66.80
61255;DHT22;47128;47.530;8.584;2023-06-26T13:11:45;32.10;65.60
61255;DHT22;47128;47.530;8.584;2023-06-26T13:17:14;31.70;65.40
61255;DHT22;47128;47.530;8.584;2023-06-26T13:19:40;31.50;64.90
61255;DHT22;47128;47.530;8.584;2023-06-26T13:22:05;31.50;65.00
61255;DHT22;47128;47.530;8.584;2023-06-26T13:27:34;31.50;65.90
61255;DHT22;47128;47.530;8.584;2023-06-26T13:33:04;31.60;65.10
61255;DHT22;47128;47.530;8.584;2023-06-26T13:38:34;31.90;64.60
61255;DHT22;47128;47.530;8.584;2023-06-26T13:41:01;31.60;63.60
61255;DHT22;47128;47.530;8.584;2023-06-26T13:43:29;31.30;63.10
61255;DHT22;47128;47.530;8.584;2023-06-26T13:52:08;31.40;63.90
61255;DHT22;47128;47.530;8.584;2023-06-26T13:54:58;31.50;63.80
61255;DHT22;47128;47.530;8.584;2023-06-26T13:57:24;31.50;64.00
61255;DHT22;47128;47.530;8.584;2023-06-26T14:06:01;31.60;64.20
61255;DHT22;47128;47.530;8.584;2023-06-26T14:11:30;31.20;64.50
61255;DHT22;47128;47.530;8.584;2023-06-26T14:20:03;31.60;64.90
61255;DHT22;47128;47.530;8.584;2023-06-26T14:22:49;31.40;64.30
61255;DHT22;47128;47.530;8.584;2023-06-26T14:28:18;31.50;64.20
61255;DHT22;47128;47.530;8.584;2023-06-26T14:33:40;31.40;63.90
61255;DHT22;47128;47.530;8.584;2023-06-26T14:39:09;31.50;65.20
61255;DHT22;47128;47.530;8.584;2023-06-26T14:41:34;31.60;65.10
61255;DHT22;47128;47.530;8.584;2023-06-26T14:44:00;31.60;64.20
61255;DHT22;47128;47.530;8.584;2023-06-26T14:46:26;31.30;64.00
61255;DHT22;47128;47.530;8.584;2023-06-26T14:58:00;31.70;63.50
61255;DHT22;47128;47.530;8.584;2023-06-26T15:00:26;31.30;62.80
61255;DHT22;47128;47.530;8.584;2023-06-26T15:02:52;31.30;62.90
61255;DHT22;47128;47.530;8.584;2023-06-26T15:11:25;31.00;60.00
61255;DHT22;47128;47.530;8.584;2023-06-26T15:13:51;31.00;60.50
61255;DHT22;47128;47.530;8.584;2023-06-26T15:16:17;31.10;61.20
61255;DHT22;47128;47.530;8.584;2023-06-26T15:18:43;31.20;60.30
61255;DHT22;47128;47.530;8.584;2023-06-26T15:21:09;31.20;60.50
61255;DHT22;47128;47.530;8.584;2023-06-26T15:23:51;31.10;60.70
61255;DHT22;47128;47.530;8.584;2023-06-26T15:26:17;31.30;60.30
61255;DHT22;47128;47.530;8.584;2023-06-26T15:28:42;31.50;60.40
61255;DHT22;47128;47.530;8.584;2023-06-26T15:31:08;31.10;60.80
61255;DHT22;47128;47.530;8.584;2023-06-26T15:33:33;31.20;61.30
61255;DHT22;47128;47.530;8.584;2023-06-26T15:35:59;31.20;61.10
61255;DHT22;47128;47.530;8.584;2023-06-26T15:38:28;31.20;60.20
61255;DHT22;47128;47.530;8.584;2023-06-26T15:40:54;31.20;60.00
61255;DHT22;47128;47.530;8.584;2023-06-26T15:43:19;31.20;59.50
61255;DHT22;47128;47.530;8.584;2023-06-26T15:45:45;31.20;60.00
61255;DHT22;47128;47.530;8.584;2023-06-26T15:48:10;31.20;60.30
61255;DHT22;47128;47.530;8.584;2023-06-26T15:53:39;30.50;61.00
61255;DHT22;47128;47.530;8.584;2023-06-26T15:58:51;30.20;61.30
61255;DHT22;47128;47.530;8.584;2023-06-26T16:01:16;30.20;61.90
61255;DHT22;47128;47.530;8.584;2023-06-26T16:03:42;30.20;62.10
61255;DHT22;47128;47.530;8.584;2023-06-26T16:06:08;30.10;61.80
61255;DHT22;47128;47.530;8.584;2023-06-26T16:08:34;30.20;62.40
61255;DHT22;47128;47.530;8.584;2023-06-26T16:11:00;30.30;62.40
61255;DHT22;47128;47.530;8.584;2023-06-26T16:13:25;30.40;62.90
61255;DHT22;47128;47.530;8.584;2023-06-26T16:15:51;30.60;62.30
61255;DHT22;47128;47.530;8.584;2023-06-26T16:18:17;30.70;62.70
61255;DHT22;47128;47.530;8.584;2023-06-26T16:20:42;30.50;62.50
61255;DHT22;47128;47.530;8.584;2023-06-26T16:23:08;30.40;62.70
61255;DHT22;47128;47.530;8.584;2023-06-26T16:25:33;30.30;63.10
61255;DHT22;47128;47.530;8.584;2023-06-26T16:27:59;30.20;63.10
61255;DHT22;47128;47.530;8.584;2023-06-26T16:30:24;30.00;63.20
61255;DHT22;47128;47.530;8.584;2023-06-26T16:32:50;30.20;63.60
61255;DHT22;47128;47.530;8.584;2023-06-26T16:35:15;30.10;63.70
61255;DHT22;47128;47.530;8.584;2023-06-26T16:37:41;30.10;63.90
61255;DHT22;47128;47.530;8.584;2023-06-26T16:40:08;30.10;64.10
61255;DHT22;47128;47.530;8.584;2023-06-26T16:42:33;30.00;63.90
61255;DHT22;47128;47.530;8.584;2023-06-26T16:44:59;30.00;64.00
61255;DHT22;47128;47.530;8.584;2023-06-26T16:47:25;30.00;64.20
61255;DHT22;47128;47.530;8.584;2023-06-26T16:49:52;29.90;64.50
61255;DHT22;47128;47.530;8.584;2023-06-26T16:52:18;29.90;64.30
61255;DHT22;47128;47.530;8.584;2023-06-26T16:54:44;29.80;64.50
61255;DHT22;47128;47.530;8.584;2023-06-26T16:57:10;29.70;76.40
61255;DHT22;47128;47.530;8.584;2023-06-26T16:59:35;29.70;70.90
61255;DHT22;47128;47.530;8.584;2023-06-26T17:02:01;29.60;68.60
61255;DHT22;47128;47.530;8.584;2023-06-26T17:04:27;29.40;74.50
61255;DHT22;47128;47.530;8.584;2023-06-26T17:06:54;29.10;64.80
61255;DHT22;47128;47.530;8.584;2023-06-26T17:09:20;28.90;65.20
61255;DHT22;47128;47.530;8.584;2023-06-26T17:11:45;28.90;65.50
61255;DHT22;47128;47.530;8.584;2023-06-26T17:14:11;28.80;65.70
61255;DHT22;47128;47.530;8.584;2023-06-26T17:16:36;28.80;65.60
61255;DHT22;47128;47.530;8.584;2023-06-26T17:19:02;28.80;65.90
61255;DHT22;47128;47.530;8.584;2023-06-26T17:21:29;28.80;65.90
61255;DHT22;47128;47.530;8.584;2023-06-26T17:23:54;28.90;65.60
61255;DHT22;47128;47.530;8.584;2023-06-26T17:26:20;28.90;65.90
61255;DHT22;47128;47.530;8.584;2023-06-26T17:28:46;28.90;65.80
61255;DHT22;47128;47.530;8.584;2023-06-26T17:31:11;28.90;65.90
61255;DHT22;47128;47.530;8.584;2023-06-26T17:33:37;28.90;65.90
61255;DHT22;47128;47.530;8.584;2023-06-26T17:36:02;28.80;65.70
61255;DHT22;47128;47.530;8.584;2023-06-26T17:38:29;28.80;65.90
61255;DHT22;47128;47.530;8.584;2023-06-26T17:40:55;28.70;66.20
61255;DHT22;47128;47.530;8.584;2023-06-26T17:43:20;28.60;65.90
61255;DHT22;47128;47.530;8.584;2023-06-26T17:45:47;28.50;65.50
61255;DHT22;47128;47.530;8.584;2023-06-26T17:48:12;28.40;65.80
61255;DHT22;47128;47.530;8.584;2023-06-26T17:50:38;28.10;65.20
61255;DHT22;47128;47.530;8.584;2023-06-26T17:53:03;28.20;65.70
61255;DHT22;47128;47.530;8.584;2023-06-26T17:55:31;28.20;65.80
61255;DHT22;47128;47.530;8.584;2023-06-26T17:57:57;28.20;65.70
61255;DHT22;47128;47.530;8.584;2023-06-26T18:00:23;28.30;65.40
61255;DHT22;47128;47.530;8.584;2023-06-26T18:02:48;28.10;65.00
61255;DHT22;47128;47.530;8.584;2023-06-26T18:05:15;28.00;65.00
61255;DHT22;47128;47.530;8.584;2023-06-26T18:07:41;28.10;65.20
61255;DHT22;47128;47.530;8.584;2023-06-26T18:10:06;28.00;64.90
61255;DHT22;47128;47.530;8.584;2023-06-26T18:12:32;28.00;64.80
61255;DHT22;47128;47.530;8.584;2023-06-26T18:14:57;27.90;65.00
61255;DHT22;47128;47.530;8.584;2023-06-26T18:17:27;28.00;68.30
61255;DHT22;47128;47.530;8.584;2023-06-26T18:19:52;27.90;69.90
61255;DHT22;47128;47.530;8.584;2023-06-26T18:22:18;28.00;67.40
61255;DHT22;47128;47.530;8.584;2023-06-26T18:24:43;27.90;65.20
61255;DHT22;47128;47.530;8.584;2023-06-26T18:27:09;27.80;65.00
61255;DHT22;47128;47.530;8.584;2023-06-26T18:29:34;27.70;65.00
61255;DHT22;47128;47.530;8.584;2023-06-26T18:32:00;27.60;65.20
61255;DHT22;47128;47.530;8.584;2023-06-26T18:34:25;27.60;64.80
61255;DHT22;47128;47.530;8.584;2023-06-26T18:36:52;27.60;64.90
61255;DHT22;47128;47.530;8.584;2023-06-26T18:39:18;27.60;64.80
61255;DHT22;47128;47.530;8.584;2023-06-26T18:41:43;27.50;64.60
61255;DHT22;47128;47.530;8.584;2023-06-26T18:44:09;27.50;64.60
61255;DHT22;47128;47.530;8.584;2023-06-26T18:46:34;27.40;64.80
61255;DHT22;47128;47.530;8.584;2023-06-26T18:49:03;27.50;64.60
61255;DHT22;47128;47.530;8.584;2023-06-26T18:56:21;27.10;64.70
61255;DHT22;47128;47.530;8.584;2023-06-26T18:58:46;27.10;65.10
61255;DHT22;47128;47.530;8.584;2023-06-26T19:01:12;27.10;65.20
61255;DHT22;47128;47.530;8.584;2023-06-26T19:03:37;27.00;65.20
61255;DHT22;47128;47.530;8.584;2023-06-26T19:06:03;26.80;65.10
61255;DHT22;47128;47.530;8.584;2023-06-26T19:08:28;26.80;65.50
61255;DHT22;47128;47.530;8.584;2023-06-26T19:10:54;26.90;67.60
61255;DHT22;47128;47.530;8.584;2023-06-26T19:13:19;27.00;66.60
61255;DHT22;47128;47.530;8.584;2023-06-26T19:15:45;26.80;66.40
61255;DHT22;47128;47.530;8.584;2023-06-26T19:18:10;26.80;68.00
61255;DHT22;47128;47.530;8.584;2023-06-26T19:20:36;26.80;68.40
61255;DHT22;47128;47.530;8.584;2023-06-26T19:25:27;26.70;64.80
61255;DHT22;47128;47.530;8.584;2023-06-26T19:27:53;26.60;65.50
61255;DHT22;47128;47.530;8.584;2023-06-26T19:30:18;26.70;65.60
61255;DHT22;47128;47.530;8.584;2023-06-26T19:32:44;26.60;66.30
61255;DHT22;47128;47.530;8.584;2023-06-26T19:35:09;26.60;66.10
61255;DHT22;47128;47.530;8.584;2023-06-26T19:37:35;26.60;66.40
61255;DHT22;47128;47.530;8.584;2023-06-26T19:40:00;26.60;66.70
61255;DHT22;47128;47.530;8.584;2023-06-26T19:42:26;26.50;66.80
61255;DHT22;47128;47.530;8.584;2023-06-26T19:44:51;26.50;67.20
61255;DHT22;47128;47.530;8.584;2023-06-26T19:47:17;26.40;68.20
61255;DHT22;47128;47.530;8.584;2023-06-26T19:49:42;26.30;66.90
61255;DHT22;47128;47.530;8.584;2023-06-26T19:54:34;26.20;67.30
61255;DHT22;47128;47.530;8.584;2023-06-26T19:56:59;26.20;68.50
61255;DHT22;47128;47.530;8.584;2023-06-26T19:59:25;26.20;68.10
61255;DHT22;47128;47.530;8.584;2023-06-26T20:01:51;26.10;68.10
61255;DHT22;47128;47.530;8.584;2023-06-26T20:04:17;26.20;70.10
61255;DHT22;47128;47.530;8.584;2023-06-26T20:14:01;25.90;93.20
61255;DHT22;47128;47.530;8.584;2023-06-26T20:16:28;25.80;67.30
61255;DHT22;47128;47.530;8.584;2023-06-26T20:18:54;25.70;67.30
61255;DHT22;47128;47.530;8.584;2023-06-26T20:21:19;25.80;67.40
61255;DHT22;47128;47.530;8.584;2023-06-26T20:23:45;25.80;78.80
61255;DHT22;47128;47.530;8.584;2023-06-26T20:26:11;25.80;81.50